Time;durP1;ratioP1;P1;durP2;ratioP2;P2;SDS_P1;SDS_P2;PMS_P1;PMS_P2;Temp;Humidity;BMP_temperature;BMP_pressure;BME280_temperature;BME280_humidity;BME280_pressure;Samples;Min_cycle;Max_cycle;Signal;HPM_P1;HPM_P2
2022/05/02 00:00:25;;;;;;;7.82;5.10;;;;;;;;;;5039547;28;20074;-70
2022/05/02 00:02:51;;;;;;;8.98;5.32;;;;;;;;;;5064184;28;20155;-69
2022/05/02 00:05:17;;;;;;;7.07;5.25;;;;;;;;;;5045827;28;20079;-70
2022/05/02 00:07:44;;;;;;;8.18;5.72;;;;;;;;;;5062694;28;20048;-69
2022/05/02 00:10:11;;;;;;;6.30;5.68;;;;;;;;;;5070107;28;20174;-69
2022/05/02 00:12:37;;;;;;;8.10;5.13;;;;;;;;;;5067330;28;20044;-70
2022/05/02 00:15:04;;;;;;;8.23;5.50;;;;;;;;;;5069005;28;20087;-69
2022/05/02 00:20:16;;;;;;;7.03;4.95;;;;;;;;;;5054858;28;20048;-68
2022/05/02 00:22:42;;;;;;;7.75;5.97;;;;;;;;;;5050197;28;20040;-69
2022/05/02 00:25:08;;;;;;;7.88;5.30;;;;;;;;;;5074397;28;20044;-68
2022/05/02 00:27:35;;;;;;;8.35;6.07;;;;;;;;;;5067193;28;20072;-68
2022/05/02 00:30:01;;;;;;;7.00;5.68;;;;;;;;;;5049754;28;20079;-68
2022/05/02 00:32:27;;;;;;;8.30;6.10;;;;;;;;;;5051932;28;20052;-68
2022/05/02 00:34:53;;;;;;;8.05;5.97;;;;;;;;;;5065997;28;20051;-68
2022/05/02 00:37:20;;;;;;;8.38;6.03;;;;;;;;;;5068052;28;20044;-68
2022/05/02 00:39:46;;;;;;;7.75;5.28;;;;;;;;;;5033942;28;20068;-69
2022/05/02 00:42:12;;;;;;;7.47;5.85;;;;;;;;;;5048628;28;20553;-68
2022/05/02 00:44:43;;;;;;;12.80;6.47;;;;;;;;;;5068895;28;20040;-69
2022/05/02 00:47:09;;;;;;;8.35;6.22;;;;;;;;;;5067848;28;20270;-68
2022/05/02 00:49:37;;;;;;;7.28;5.65;;;;;;;;;;5067242;28;20206;-69
2022/05/02 00:52:04;;;;;;;10.85;6.72;;;;;;;;;;5066490;28;20050;-69
2022/05/02 00:54:30;;;;;;;7.75;6.18;;;;;;;;;;5052256;28;20051;-68
2022/05/02 00:56:56;;;;;;;7.07;5.72;;;;;;;;;;5066830;28;20099;-68
2022/05/02 00:59:23;;;;;;;8.30;5.85;;;;;;;;;;5048715;28;20071;-68
2022/05/02 01:01:50;;;;;;;12.52;6.40;;;;;;;;;;5068560;28;20082;-68
2022/05/02 01:04:16;;;;;;;9.10;5.75;;;;;;;;;;5065133;28;20036;-68
2022/05/02 01:09:27;;;;;;;10.88;6.32;;;;;;;;;;5027378;28;20519;-69
2022/05/02 01:11:55;;;;;;;7.78;5.75;;;;;;;;;;5027830;28;20507;-69
2022/05/02 01:14:21;;;;;;;10.15;5.93;;;;;;;;;;5027408;28;20475;-69
2022/05/02 01:16:47;;;;;;;7.57;5.80;;;;;;;;;;5027289;28;20103;-69
2022/05/02 01:19:13;;;;;;;11.10;6.22;;;;;;;;;;5025086;28;20538;-69
2022/05/02 01:21:40;;;;;;;8.55;6.20;;;;;;;;;;5024921;28;20052;-68
2022/05/02 01:24:07;;;;;;;9.45;7.18;;;;;;;;;;5027302;28;20144;-69
2022/05/02 01:26:33;;;;;;;9.55;6.38;;;;;;;;;;5029322;28;20048;-68
2022/05/02 01:29:00;;;;;;;8.93;5.90;;;;;;;;;;5025951;28;20076;-69
2022/05/02 01:31:26;;;;;;;10.93;6.47;;;;;;;;;;5038083;28;20073;-69
2022/05/02 01:33:53;;;;;;;8.55;6.15;;;;;;;;;;5024354;28;20071;-68
2022/05/02 01:36:19;;;;;;;9.45;6.85;;;;;;;;;;5027164;28;20036;-69
2022/05/02 01:38:46;;;;;;;10.30;7.05;;;;;;;;;;5030796;28;20041;-69
2022/05/02 01:41:12;;;;;;;10.27;6.38;;;;;;;;;;5026656;28;20041;-68
2022/05/02 01:43:39;;;;;;;9.30;7.05;;;;;;;;;;5028822;28;20049;-69
2022/05/02 01:46:06;;;;;;;7.45;5.95;;;;;;;;;;5025107;28;20091;-69
2022/05/02 01:48:33;;;;;;;10.27;6.88;;;;;;;;;;5026423;28;20041;-69
2022/05/02 01:50:59;;;;;;;10.10;6.75;;;;;;;;;;5031490;28;20049;-68
2022/05/02 01:53:25;;;;;;;9.85;6.75;;;;;;;;;;5018740;28;20469;-69
2022/05/02 01:55:52;;;;;;;9.35;6.47;;;;;;;;;;5026747;28;20046;-69
2022/05/02 01:58:18;;;;;;;14.75;7.55;;;;;;;;;;5028007;28;20088;-69
2022/05/02 02:00:44;;;;;;;7.97;6.75;;;;;;;;;;5027431;28;20154;-68
2022/05/02 02:03:11;;;;;;;9.35;7.32;;;;;;;;;;5029952;28;20051;-69
2022/05/02 02:05:49;;;;;;;9.52;6.97;;;;;;;;;;5031955;28;20083;-68
2022/05/02 02:08:16;;;;;;;9.18;6.95;;;;;;;;;;5035819;28;20053;-69
2022/05/02 02:10:43;;;;;;;13.98;7.43;;;;;;;;;;5045694;28;20045;-68
2022/05/02 02:13:09;;;;;;;9.10;6.75;;;;;;;;;;5045750;28;20036;-68
2022/05/02 02:15:35;;;;;;;10.13;7.15;;;;;;;;;;5045607;28;20037;-69
2022/05/02 02:18:01;;;;;;;8.82;6.63;;;;;;;;;;5044544;28;20601;-68
2022/05/02 02:20:27;;;;;;;11.60;6.65;;;;;;;;;;5043813;28;20041;-68
2022/05/02 02:22:55;;;;;;;8.95;6.38;;;;;;;;;;5043752;28;20516;-68
2022/05/02 02:25:21;;;;;;;11.68;6.75;;;;;;;;;;5048876;28;20106;-69
2022/05/02 02:27:47;;;;;;;11.20;8.32;;;;;;;;;;5028217;28;20053;-69
2022/05/02 02:30:14;;;;;;;13.90;7.68;;;;;;;;;;5044196;28;20288;-69
2022/05/02 02:32:41;;;;;;;9.75;7.35;;;;;;;;;;5045392;28;20124;-69
2022/05/02 02:35:07;;;;;;;10.00;7.18;;;;;;;;;;5044804;28;20305;-69
2022/05/02 02:37:34;;;;;;;10.65;7.03;;;;;;;;;;5044130;28;20124;-68
2022/05/02 02:40:00;;;;;;;12.80;7.53;;;;;;;;;;5045653;28;20083;-69
2022/05/02 02:42:26;;;;;;;7.93;6.47;;;;;;;;;;5044656;28;20044;-69
2022/05/02 02:44:52;;;;;;;7.13;6.32;;;;;;;;;;5044781;28;20135;-70
2022/05/02 02:47:18;;;;;;;8.23;6.18;;;;;;;;;;5044422;28;20533;-69
2022/05/02 02:49:45;;;;;;;7.68;6.47;;;;;;;;;;5055927;28;20041;-70
2022/05/02 02:52:11;;;;;;;10.38;7.88;;;;;;;;;;5043144;28;20545;-69
2022/05/02 02:54:37;;;;;;;11.23;7.05;;;;;;;;;;5044472;28;20098;-70
2022/05/02 02:57:03;;;;;;;12.48;7.53;;;;;;;;;;5043898;28;20498;-69
2022/05/02 02:59:29;;;;;;;11.30;7.95;;;;;;;;;;5042805;28;20045;-69
2022/05/02 03:01:56;;;;;;;10.07;6.53;;;;;;;;;;5044267;28;20134;-70
2022/05/02 03:07:08;;;;;;;10.07;8.05;;;;;;;;;;5044431;28;20527;-69
2022/05/02 03:09:34;;;;;;;11.27;7.15;;;;;;;;;;5065046;28;20083;-69
2022/05/02 03:12:01;;;;;;;9.45;6.95;;;;;;;;;;5055412;28;20089;-70
2022/05/02 03:14:27;;;;;;;11.02;7.43;;;;;;;;;;5049776;28;20047;-70
2022/05/02 03:16:53;;;;;;;9.02;7.10;;;;;;;;;;5046570;28;20586;-69
2022/05/02 03:19:19;;;;;;;8.35;6.22;;;;;;;;;;5063558;28;20123;-69
2022/05/02 03:21:45;;;;;;;10.60;7.00;;;;;;;;;;5063879;28;20044;-69
2022/05/02 03:24:11;;;;;;;8.90;6.45;;;6.20;99.90;;;;;;5064313;28;20089;-69
2022/05/02 03:26:37;;;;;;;10.90;7.28;;;5.20;99.90;;;;;;5066368;28;20056;-69
2022/05/02 03:29:03;;;;;;;9.98;6.93;;;5.00;99.90;;;;;;5064196;28;20056;-70
2022/05/02 03:31:28;;;;;;;7.65;6.82;;;5.00;99.90;;;;;;5071876;28;20036;-70
2022/05/02 03:33:54;;;;;;;11.32;6.65;;;5.00;99.90;;;;;;5046913;28;20043;-70
2022/05/02 03:36:20;;;;;;;10.80;7.18;;;5.00;99.90;;;;;;5048474;28;20318;-69
2022/05/02 03:38:46;;;;;;;10.13;6.82;;;4.90;99.90;;;;;;5046055;28;20128;-69
2022/05/02 03:41:11;;;;;;;7.10;6.03;;;4.90;99.90;;;;;;5048290;28;20571;-69
2022/05/02 03:43:38;;;;;;;8.25;6.32;;;4.90;99.90;;;;;;5044286;28;20349;-70
2022/05/02 03:46:04;;;;;;;9.88;7.03;;;4.80;99.90;;;;;;5063665;28;20044;-69
2022/05/02 03:48:29;;;;;;;10.13;7.68;;;4.80;99.90;;;;;;5064427;28;20106;-70
2022/05/02 03:50:55;;;;;;;9.73;7.15;;;4.80;99.90;;;;;;5045309;28;20505;-69
2022/05/02 03:53:21;;;;;;;10.73;7.47;;;4.80;99.90;;;;;;5065348;28;20157;-70
2022/05/02 03:55:47;;;;;;;11.32;7.82;;;4.80;99.90;;;;;;5069513;28;20413;-70
2022/05/02 03:58:13;;;;;;;11.70;7.95;;;4.80;99.90;;;;;;5047493;28;20051;-70
2022/05/02 04:00:40;;;;;;;12.05;7.70;;;4.80;99.90;;;;;;5029414;28;20044;-69
2022/05/02 04:03:06;;;;;;;12.23;8.23;;;4.80;99.90;;;;;;5066038;28;20040;-69
2022/05/02 04:05:32;;;;;;;13.10;7.40;;;4.80;99.90;;;;;;5049318;28;20039;-70
2022/05/02 04:07:57;;;;;;;8.32;6.88;;;4.80;99.90;;;;;;5063135;28;20486;-70
2022/05/02 04:10:23;;;;;;;10.63;8.13;;;4.70;99.90;;;;;;5065605;28;20048;-70
2022/05/02 04:12:49;;;;;;;11.95;8.15;;;4.70;99.90;;;;;;5049163;28;20048;-69
2022/05/02 04:15:17;;;;;;;9.18;7.15;;;4.70;99.90;;;;;;5051800;28;20041;-70
2022/05/02 04:17:43;;;;;;;11.07;7.82;;;4.70;99.90;;;;;;5063344;28;20056;-70
2022/05/02 04:20:10;;;;;;;9.57;7.85;;;4.70;99.90;;;;;;5045458;28;20369;-70
2022/05/02 04:22:37;;;;;;;11.88;8.10;;;4.70;99.90;;;;;;5063103;28;20040;-69
2022/05/02 04:25:04;;;;;;;11.02;8.27;;;4.80;99.90;;;;;;5066766;28;20074;-69
2022/05/02 04:27:30;;;;;;;12.27;7.53;;;4.70;99.90;;;;;;5044842;28;20044;-69
2022/05/02 04:29:56;;;;;;;15.32;8.05;;;4.70;99.90;;;;;;5065720;28;20068;-69
2022/05/02 04:32:22;;;;;;;11.45;8.40;;;4.70;99.90;;;;;;5046224;28;20048;-69
2022/05/02 04:34:48;;;;;;;12.88;8.05;;;4.70;99.90;;;;;;5046941;28;20435;-69
2022/05/02 04:37:14;;;;;;;11.57;8.02;;;4.70;99.90;;;;;;5063008;28;20581;-69
2022/05/02 04:39:41;;;;;;;13.18;8.63;;;4.70;99.90;;;;;;5046267;28;20055;-70
2022/05/02 04:42:07;;;;;;;11.63;8.25;;;4.70;99.90;;;;;;5062910;28;20032;-70
2022/05/02 04:44:34;;;;;;;11.13;8.38;;;4.70;99.90;;;;;;5065066;28;20136;-69
2022/05/02 04:47:00;;;;;;;10.77;7.60;;;4.70;99.90;;;;;;5044678;28;20488;-70
2022/05/02 04:49:26;;;;;;;10.68;8.40;;;4.70;99.90;;;;;;5041704;28;20375;-70
2022/05/02 04:51:52;;;;;;;11.80;8.43;;;4.70;99.90;;;;;;5042575;28;20055;-69
2022/05/02 04:54:18;;;;;;;13.73;8.02;;;4.70;99.90;;;;;;5041605;28;20379;-69
2022/05/02 04:56:43;;;;;;;12.45;8.60;;;4.70;99.90;;;;;;5046468;28;20566;-70
2022/05/02 04:59:09;;;;;;;13.00;8.48;;;4.70;99.90;;;;;;5047072;28;20048;-69
2022/05/02 05:01:35;;;;;;;11.32;8.38;;;4.70;99.90;;;;;;5070065;28;20229;-69
2022/05/02 05:04:01;;;;;;;12.75;9.38;;;4.80;99.90;;;;;;5047766;28;20040;-69
2022/05/02 05:06:27;;;;;;;12.20;9.20;;;4.80;99.90;;;;;;5050646;28;20075;-70
2022/05/02 05:08:53;;;;;;;15.85;8.52;;;4.80;99.90;;;;;;5065519;28;20248;-70
2022/05/02 05:11:49;;;;;;;12.27;8.55;;;4.90;99.90;;;;;;5064043;28;20040;-69
2022/05/02 05:17:47;;;;;;;13.35;9.73;;;5.00;99.90;;;;;;5066517;28;20468;-69
2022/05/02 05:20:44;;;;;;;13.27;10.15;;;5.10;99.90;;;;;;5048189;28;20497;-69
2022/05/02 05:23:32;;;;;;;15.05;10.38;;;5.20;99.90;;;;;;5048305;28;20040;-70
2022/05/02 05:26:20;;;;;;;12.40;9.23;;;5.30;99.90;;;;;;5020759;28;20514;-69
2022/05/02 05:29:07;;;;;;;11.77;9.60;;;5.30;99.90;;;;;;5068327;28;20495;-69
2022/05/02 05:31:41;;;;;;;14.52;8.85;;;5.40;99.90;;;;;;5062640;28;20048;-70
2022/05/02 05:34:23;;;;;;;15.35;11.30;;;;;;;;;;5049815;28;20055;-69
2022/05/02 05:36:49;;;;;;;14.10;10.98;;;;;;;;;;5066619;28;20044;-69
2022/05/02 05:39:34;;;;;;;14.18;9.95;;;;;;;;;;5051606;28;20047;-69
2022/05/02 05:42:17;;;;;;;13.07;9.88;;;;;;;;;;5051299;28;20169;-69
2022/05/02 05:44:43;;;;;;;16.65;9.73;;;;;;;;;;5066098;28;20037;-69
2022/05/02 05:47:28;;;;;;;11.95;9.18;;;;;;;;;;5069642;28;20036;-69
2022/05/02 05:50:13;;;;;;;15.18;10.45;;;;;;;;;;5064812;28;20039;-69
2022/05/02 05:52:52;;;;;;;12.85;9.77;;;;;;;;;;5052399;28;20046;-70
2022/05/02 05:55:22;;;;;;;13.00;9.70;;;;;;;;;;5048091;28;20166;-69
2022/05/02 05:57:50;;;;;;;13.65;9.38;;;;;;;;;;5050649;28;20059;-70
2022/05/02 06:00:18;;;;;;;12.93;10.43;;;;;;;;;;5069720;28;20505;-69
2022/05/02 06:02:49;;;;;;;13.10;10.93;;;;;;;;;;5066848;28;20050;-70
2022/05/02 06:05:16;;;;;;;16.88;11.30;;;;;;;;;;5071895;28;20044;-70
2022/05/02 06:07:44;;;;;;;14.80;10.80;;;;;;;;;;5044828;28;20520;-70
2022/05/02 06:10:11;;;;;;;17.63;10.80;;;;;;;;;;5045749;28;20090;-69
2022/05/02 06:12:39;;;;;;;13.30;10.43;;;;;;;;;;5052054;28;20074;-68
2022/05/02 06:20:39;;;;;;;15.25;10.30;;;;;;;;;;5071672;28;20521;-70
2022/05/02 06:23:09;;;;;;;15.23;10.45;;;;;;;;;;5065844;28;20472;-70
2022/05/02 06:25:37;;;;;;;13.18;10.32;;;;;;;;;;5046244;28;20427;-69
2022/05/02 06:28:04;;;;;;;12.93;10.15;;;;;;;;;;5053397;28;20554;-69
2022/05/02 06:30:31;;;;;;;13.65;10.20;;;;;;;;;;5049087;28;20044;-70
2022/05/02 06:32:58;;;;;;;12.60;9.27;;;;;;;;;;5063592;28;20045;-70
2022/05/02 06:35:29;;;;;;;15.15;9.57;;;;;;;;;;5062568;28;20090;-69
2022/05/02 06:38:10;;;;;;;15.35;9.43;;;;;;;;;;5067607;28;20113;-69
2022/05/02 06:40:42;;;;;;;22.48;9.80;;;;;;;;;;5059077;28;20040;-70
2022/05/02 06:43:08;;;;;;;13.93;10.20;;;;;;;;;;5063277;28;20517;-70
2022/05/02 06:45:41;;;;;;;17.00;10.25;;;;;;;;;;5047252;28;20105;-70
2022/05/02 06:48:07;;;;;;;;;;;;;;;;;;5066420;28;20374;-70
2022/05/02 06:50:36;;;;;;;12.20;9.10;;;;;;;;;;5057174;28;20654;-70
2022/05/02 06:53:21;;;;;;;14.57;10.18;;;;;;;;;;5064519;28;20570;-70
2022/05/02 06:55:57;;;;;;;12.40;10.02;;;;;;;;;;5062888;28;20512;-70
2022/05/02 06:58:34;;;;;;;14.15;10.25;;;;;;;;;;5062035;28;20535;-70
2022/05/02 07:01:09;;;;;;;15.73;9.88;;;;;;;;;;5044596;28;20478;-70
2022/05/02 07:03:45;;;;;;;13.68;9.52;;;;;;;;;;5065468;28;20052;-70
2022/05/02 07:06:25;;;;;;;13.02;9.75;;;;;;;;;;5052025;28;20490;-70
2022/05/02 07:08:57;;;;;;;12.30;8.80;;;;;;;;;;5048875;28;20060;-70
2022/05/02 07:11:28;;;;;;;11.98;9.02;;;;;;;;;;5041895;28;20048;-70
2022/05/02 07:14:08;;;;;;;12.77;8.65;;;;;;;;;;5061823;28;20114;-70
2022/05/02 07:16:37;;;;;;;13.20;7.97;;;;;;;;;;5046119;28;20043;-70
2022/05/02 07:19:05;;;;;;;13.52;9.43;;;;;;;;;;5059458;28;20052;-71
2022/05/02 07:21:34;;;;;;;12.15;7.75;;;;;;;;;;5067003;28;20032;-70
2022/05/02 07:24:12;;;;;;;13.60;9.48;;;;;;;;;;5067628;28;20072;-70
2022/05/02 07:26:38;;;;;;;11.57;7.78;;;;;;;;;;5065693;28;20052;-71
2022/05/02 07:29:05;;;;;;;10.00;7.35;;;;;;;;;;5042247;28;20048;-70
2022/05/02 07:31:31;;;;;;;8.95;6.47;;;;;;;;;;5066051;28;20036;-71
2022/05/02 07:33:58;;;;;;;12.05;7.22;;;;;;;;;;5060377;28;20125;-70
2022/05/02 07:36:25;;;;;;;11.00;7.50;;;;;;;;;;5049287;28;20040;-70
2022/05/02 07:38:58;;;;;;;11.60;7.05;;;;;;;;;;5047633;28;20052;-70
2022/05/02 07:41:26;;;;;;;10.73;6.63;;;;;;;;;;5050236;28;20111;-70
2022/05/02 07:43:59;;;;;;;12.10;7.30;;;;;;;;;;5047827;28;20048;-70
2022/05/02 07:46:30;;;;;;;10.43;7.05;;;;;;;;;;5067232;28;20067;-70
2022/05/02 07:48:58;;;;;;;9.48;6.63;;;;;;;;;;5070431;28;20040;-70
2022/05/02 07:51:24;;;;;;;9.40;7.45;;;;;;;;;;5066113;28;20498;-71
2022/05/02 07:53:51;;;;;;;8.63;6.70;;;;;;;;;;5070734;28;20076;-70
2022/05/02 07:56:18;;;;;;;10.20;6.60;;;;;;;;;;5049477;28;20088;-71
2022/05/02 07:58:44;;;;;;;10.20;7.03;;;;;;;;;;5045683;28;20506;-70
2022/05/02 08:01:10;;;;;;;9.77;6.93;;;;;;;;;;5046790;28;20548;-71
2022/05/02 08:03:37;;;;;;;8.57;6.40;;;;;;;;;;5047998;28;20457;-71
2022/05/02 08:06:10;;;;;;;12.23;6.63;;;;;;;;;;5062627;28;20729;-70
2022/05/02 08:08:42;;;;;;;10.55;6.60;;;;;;;;;;5045659;28;20064;-70
2022/05/02 08:11:14;;;;;;;9.95;6.93;;;;;;;;;;5067536;28;20076;-71
2022/05/02 08:13:48;;;;;;;7.18;5.93;;;;;;;;;;5064374;28;20048;-70
2022/05/02 08:16:23;;;;;;;8.63;5.90;;;;;;;;;;5044072;28;20163;-70
2022/05/02 08:18:49;;;;;;;8.95;5.97;;;;;;;;;;5069245;28;20052;-71
2022/05/02 08:21:25;;;;;;;10.30;5.88;;;;;;;;;;5047771;28;20090;-70
2022/05/02 08:27:17;;;;;;;7.90;5.93;;;;;;;;;;5047567;28;20052;-71
2022/05/02 08:29:54;;;;;;;7.43;5.32;;;;;;;;;;5031339;28;20757;-71
2022/05/02 08:32:26;;;;;;;10.35;6.63;;;;;;;;;;5050510;28;20393;-71
2022/05/02 08:35:02;;;;;;;13.25;6.55;;;;;;;;;;5058659;28;20374;-71
2022/05/02 08:37:46;;;;;;;7.60;5.88;;;;;;;;;;5068771;28;20040;-70
2022/05/02 08:40:22;;;;;;;9.60;5.80;;;;;;;;;;5072810;28;20413;-71
2022/05/02 08:42:55;;;;;;;9.18;6.18;;;;;;;;;;5054199;28;20040;-71
2022/05/02 08:45:21;;;;;;;9.38;5.90;;;;;;;;;;5070079;28;20548;-70
2022/05/02 08:48:11;;;;;;;13.23;7.13;;;;;;;;;;5050308;28;20054;-71
2022/05/02 08:50:37;;;;;;;7.97;6.15;;;;;;;;;;5069387;28;20535;-70
2022/05/02 08:53:22;;;;;;;10.52;6.68;;;;;;;;;;5049152;28;20162;-71
2022/05/02 08:56:07;;;;;;;9.65;5.95;;;;;;;;;;5058766;28;20094;-71
2022/05/02 08:58:47;;;;;;;9.82;6.40;;;;;;;;;;5070467;28;20127;-71
2022/05/02 09:01:23;;;;;;;9.25;7.45;;;;;;;;;;5050600;28;20478;-71
2022/05/02 09:04:07;;;;;;;9.68;6.32;;;;;;;;;;5066646;28;20402;-71
2022/05/02 09:06:46;;;;;;;13.90;6.22;;;;;;;;;;5051850;28;20036;-71
2022/05/02 09:12:18;;;;;;;10.77;6.22;;;;;;;;;;5048787;28;20060;-70
2022/05/02 09:15:03;;;;;;;9.68;6.82;;;;;;;;;;5069765;28;20062;-70
2022/05/02 09:17:59;;;;;;;8.77;6.25;;;;;;;;;;5058845;28;20545;-70
2022/05/02 09:20:35;;;;;;;8.10;6.13;;;;;;;;;;5029662;28;20088;-70
2022/05/02 09:23:21;;;;;;;8.70;6.30;;;;;;;;;;5067695;28;20044;-70
2022/05/02 09:26:10;;;;;;;8.00;5.32;;;;;;;;;;5067095;28;20329;-70
2022/05/02 09:28:39;;;;;;;12.38;5.82;;;;;;;;;;5051386;28;20044;-70
2022/05/02 09:31:24;;;;;;;8.98;6.50;;;;;;;;;;5049343;28;20579;-70
2022/05/02 09:34:01;;;;;;;12.55;7.00;;;;;;;;;;5067958;28;20197;-70
2022/05/02 09:36:27;;;;;;;8.38;5.72;;;;;;;;;;5048707;28;20465;-70
2022/05/02 09:39:01;;;;;;;11.00;6.10;;;;;;;;;;5050076;28;20044;-70
2022/05/02 09:41:36;;;;;;;8.02;5.55;;;;;;;;;;5065190;28;20127;-70
2022/05/02 09:49:54;;;;;;;7.65;5.38;;;;;;;;;;5068751;28;20044;-70
2022/05/02 09:52:29;;;;;;;8.95;5.40;;;;;;;;;;5035077;28;20042;-71
2022/05/02 09:57:54;;;;;;;7.18;5.47;;;;;;;;;;5067089;28;20505;-70
2022/05/02 10:03:36;;;;;;;7.30;5.22;;;;;;;;;;5072024;28;20573;-71
2022/05/02 10:06:09;;;;;;;9.82;6.15;;;;;;;;;;5049487;28;20418;-70
2022/05/02 10:08:45;;;;;;;7.78;5.35;;;;;;;;;;5066085;28;20068;-70
2022/05/02 10:11:22;;;;;;;5.97;4.97;;;;;;;;;;5069680;28;20120;-70
2022/05/02 10:13:56;;;;;;;7.95;5.60;;;;;;;;;;5050658;28;20087;-70
2022/05/02 10:16:31;;;;;;;6.60;5.10;;;;;;;;;;5048088;28;20120;-70
2022/05/02 10:19:08;;;;;;;8.77;5.90;;;;;;;;;;5048354;28;20091;-70
2022/05/02 10:21:35;;;;;;;8.52;5.18;;;;;;;;;;5047233;28;20050;-70
2022/05/02 10:24:01;;;;;;;9.68;6.05;;;;;;;;;;5045752;28;20048;-71
2022/05/02 10:26:47;;;;;;;7.07;5.63;;;;;;;;;;5056934;28;20387;-70
2022/05/02 10:29:29;;;;;;;6.78;5.03;;;;;;;;;;5066515;28;20059;-70
2022/05/02 10:32:03;;;;;;;7.17;5.57;;;;;;;;;;5065560;28;20079;-70
2022/05/02 10:34:31;;;;;;;8.05;5.28;;;;;;;;;;5066695;28;20127;-70
2022/05/02 10:37:01;;;;;;;5.90;4.85;;;;;;;;;;5065889;28;20089;-70
2022/05/02 10:39:33;;;;;;;10.25;5.75;;;;;;;;;;5068438;28;20056;-71
2022/05/02 10:41:59;;;;;;;6.97;5.03;;;;;;;;;;5047517;28;20181;-70
2022/05/02 10:44:28;;;;;;;7.72;5.32;;;;;;;;;;5052658;28;20037;-71
2022/05/02 10:47:01;;;;;;;15.48;5.45;;;;;;;;;;5047907;28;20047;-71
2022/05/02 10:49:28;;;;;;;;;;;;;;;;;;5050523;28;20044;-70
2022/05/02 10:52:00;;;;;;;7.72;4.50;;;;;;;;;;5047522;28;19963;-70
2022/05/02 10:54:46;;;;;;;7.90;4.13;;;;;;;;;;5052410;28;20048;-70
2022/05/02 10:57:18;;;;;;;5.95;4.32;;;;;;;;;;5063368;28;20044;-70
2022/05/02 10:59:45;;;;;;;6.53;4.63;;;;;;;;;;5065893;28;20187;-70
2022/05/02 11:02:30;;;;;;;6.25;4.30;;;;;;;;;;5050427;28;20040;-70
2022/05/02 11:05:14;;;;;;;6.20;3.88;;;;;;;;;;5048590;28;20641;-70
2022/05/02 11:07:50;;;;;;;5.85;4.22;;;;;;;;;;5048040;28;20629;-70
2022/05/02 11:10:18;;;;;;;6.88;3.63;;;;;;;;;;5068349;28;20246;-71
2022/05/02 11:12:56;;;;;;;6.07;5.22;;;;;;;;;;5049643;28;20051;-71
2022/05/02 11:15:26;;;;;;;5.40;4.15;;;;;;;;;;5045184;28;20044;-70
2022/05/02 11:18:04;;;;;;;4.80;3.65;;;;;;;;;;5058540;28;20040;-70
2022/05/02 11:20:42;;;;;;;6.60;3.92;;;;;;;;;;5063764;28;20032;-70
2022/05/02 11:23:18;;;;;;;6.47;4.22;;;;;;;;;;5067421;28;20040;-70
2022/05/02 11:25:53;;;;;;;7.93;4.38;;;;;;;;;;5064711;28;20490;-70
2022/05/02 11:28:22;;;;;;;4.80;3.40;;;;;;;;;;5049877;28;20135;-71
2022/05/02 11:30:57;;;;;;;5.78;3.50;;;;;;;;;;5061888;28;20044;-70
2022/05/02 11:33:24;;;;;;;7.32;3.55;;;;;;;;;;5049875;28;20130;-71
2022/05/02 11:35:54;;;;;;;5.60;3.53;;;;;;;;;;5051337;28;20104;-71
2022/05/02 11:38:24;;;;;;;7.60;3.75;;;;;;;;;;5064282;28;20354;-70
2022/05/02 11:41:09;;;;;;;5.40;4.50;;;;;;;;;;5065228;28;20311;-70
2022/05/02 11:43:38;;;;;;;7.20;4.00;;;;;;;;;;5037461;28;20572;-71
2022/05/02 11:46:26;;;;;;;7.70;3.45;;;;;;;;;;5047555;28;20036;-71
2022/05/02 11:49:00;;;;;;;6.30;3.00;;;;;;;;;;5055400;28;20382;-71
2022/05/02 11:51:38;;;;;;;7.93;3.53;;;;;;;;;;5036801;28;20043;-70
2022/05/02 11:54:14;;;;;;;4.63;3.47;;;;;;;;;;5064837;28;20048;-71
2022/05/02 11:56:45;;;;;;;6.18;4.03;;;;;;;;;;5050558;28;20084;-71
2022/05/02 11:59:12;;;;;;;6.78;4.38;;;;;;;;;;5069366;28;20198;-71
2022/05/02 12:01:41;;;;;;;5.68;4.40;;;;;;;;;;5065633;28;20529;-71
2022/05/02 12:04:09;;;;;;;5.07;4.28;;;;;;;;;;5056363;28;20040;-71
2022/05/02 12:06:43;;;;;;;10.73;4.88;;;;;;;;;;5055640;28;20083;-71
2022/05/02 12:09:22;;;;;;;5.90;4.57;;;;;;;;;;5060310;28;20468;-72
2022/05/02 12:11:55;;;;;;;6.53;4.03;;;;;;;;;;5057811;28;20052;-71
2022/05/02 12:14:22;;;;;;;6.28;4.90;;;;;;;;;;5057590;28;20087;-71
2022/05/02 12:17:09;;;;;;;10.15;4.82;;;;;;;;;;5077081;28;20062;-71
2022/05/02 12:19:37;;;;;;;8.50;4.85;;;;;;;;;;5069948;28;20046;-71
2022/05/02 12:22:05;;;;;;;6.43;5.10;;;;;;;;;;5054580;28;20287;-71
2022/05/02 12:24:37;;;;;;;7.13;4.30;;;;;;;;;;5062970;28;20460;-71
2022/05/02 12:27:08;;;;;;;6.80;4.80;;;;;;;;;;5058216;28;20097;-72
2022/05/02 12:29:35;;;;;;;6.63;4.65;;;;;;;;;;5063109;28;20044;-71
2022/05/02 12:32:03;;;;;;;6.60;4.57;;;;;;;;;;5052485;28;20075;-71
2022/05/02 12:34:36;;;;;;;7.65;4.82;;;;;;;;;;5075159;28;20042;-71
2022/05/02 12:37:10;;;;;;;6.80;4.72;;;;;;;;;;5076409;28;20117;-71
2022/05/02 12:39:45;;;;;;;6.93;5.03;;;;;;;;;;5056400;28;20041;-72
2022/05/02 12:42:17;;;;;;;6.32;4.18;;;;;;;;;;5050562;28;20394;-71
2022/05/02 12:45:02;;;;;;;6.97;5.43;;;;;;;;;;5072865;28;20097;-71
2022/05/02 12:47:33;;;;;;;5.43;3.88;;;;;;;;;;5055303;28;20344;-71
2022/05/02 12:50:07;;;;;;;6.80;4.15;;;;;;;;;;5070362;28;20556;-72
2022/05/02 12:52:34;;;;;;;5.40;4.05;;;;;;;;;;5074386;28;20452;-71
2022/05/02 12:55:01;;;;;;;5.95;4.65;;;;;;;;;;5060234;28;20119;-71
2022/05/02 13:00:33;;;;;;;9.05;4.45;;;;;;;;;;5054990;28;20063;-71
2022/05/02 13:03:05;;;;;;;5.28;4.32;;;;;;;;;;5054121;28;20434;-71
2022/05/02 13:05:32;;;;;;;5.13;3.65;;;;;;;;;;5055350;28;20593;-71
2022/05/02 13:08:07;;;;;;;4.85;3.80;;;;;;;;;;5052664;28;20040;-71
2022/05/02 13:10:33;;;;;;;5.80;3.83;;;;;;;;;;5042447;28;20124;-72
2022/05/02 13:13:03;;;;;;;6.68;4.53;;;;;;;;;;5070227;28;20044;-71
2022/05/02 13:15:30;;;;;;;6.45;3.90;;;;;;;;;;5052020;28;20044;-72
2022/05/02 13:17:57;;;;;;;5.97;3.83;;;;;;;;;;5059572;28;20046;-72
2022/05/02 13:20:25;;;;;;;5.97;4.22;;;;;;;;;;5047598;28;20032;-72
2022/05/02 13:23:18;;;;;;;10.32;4.60;;;;;;;;;;5047873;28;20353;-72
2022/05/02 13:25:46;;;;;;;4.38;3.35;;;;;;;;;;5051402;28;20052;-72
2022/05/02 13:28:18;;;;;;;6.13;3.47;;;;;;;;;;5068029;28;20055;-72
2022/05/02 13:30:50;;;;;;;6.13;3.90;;;;;;;;;;5051175;28;20052;-71
2022/05/02 13:33:19;;;;;;;4.72;3.13;;;;;;;;;;5074965;28;20044;-72
2022/05/02 13:35:46;;;;;;;6.07;3.75;;;;;;;;;;5050932;28;20068;-72
2022/05/02 13:38:18;;;;;;;6.07;4.40;;;;;;;;;;5066837;28;20044;-71
2022/05/02 13:40:45;;;;;;;;;;;;;;;;;;5050037;28;20098;-72
2022/05/02 13:43:11;;;;;;;6.80;4.00;;;;;;;;;;5072271;28;19923;-72
2022/05/02 13:45:52;;;;;;;4.18;2.97;;;;;;;;;;5051783;28;20395;-72
2022/05/02 13:48:20;;;;;;;5.75;3.47;;;;;;;;;;5067941;28;20049;-72
2022/05/02 13:51:05;;;;;;;4.13;3.20;;;;;;;;;;5047872;28;20040;-72
2022/05/02 13:53:36;;;;;;;5.22;3.35;;;;;;;;;;5070069;28;20048;-72
2022/05/02 13:56:07;;;;;;;5.68;3.38;;;;;;;;;;5051067;28;20398;-72
2022/05/02 13:58:43;;;;;;;4.45;3.15;;;;;;;;;;5066197;28;20117;-72
2022/05/02 14:01:29;;;;;;;6.40;3.05;;;;;;;;;;5052738;28;20047;-72
2022/05/02 14:07:14;;;;;;;4.65;3.85;;;;;;;;;;5050569;28;20045;-73
2022/05/02 14:09:41;;;;;;;5.20;4.00;;;;;;;;;;5044241;28;20128;-73
2022/05/02 14:12:23;;;;;;;8.52;3.40;;;;;;;;;;5065517;28;20041;-72
2022/05/02 14:15:00;;;;;;;3.78;3.10;;;;;;;;;;5033681;28;20048;-72
2022/05/02 14:17:36;;;;;;;5.60;3.25;;;;;;;;;;5066434;28;20044;-72
2022/05/02 14:20:09;;;;;;;5.10;3.33;;;;;;;;;;5048010;28;20092;-72
2022/05/02 14:22:38;;;;;;;4.80;3.33;;;;;;;;;;5053541;28;20127;-72
2022/05/02 14:25:06;;;;;;;5.53;3.33;;;;;;;;;;5056166;28;20044;-73
2022/05/02 14:27:33;;;;;;;4.97;3.42;;;;;;;;;;5065518;28;20055;-73
2022/05/02 14:30:04;;;;;;;5.07;3.65;;;;;;;;;;5050171;28;20436;-72
2022/05/02 14:32:40;;;;;;;4.60;3.17;;;;;;;;;;5073397;28;20041;-72
2022/05/02 14:35:07;;;;;;;6.55;2.70;;;;;;;;;;5070109;28;20044;-72
2022/05/02 14:37:35;;;;;;;3.83;2.30;;;;;;;;;;5067969;28;20455;-72
2022/05/02 14:40:02;;;;;;;4.22;2.40;;;;;;;;;;5067713;28;20090;-72
2022/05/02 14:42:31;;;;;;;2.78;2.00;;;;;;;;;;5048001;28;20040;-73
2022/05/02 14:44:59;;;;;;;3.15;2.17;;;;;;;;;;5066480;28;20351;-72
2022/05/02 14:47:26;;;;;;;7.30;2.08;;;;;;;;;;5068445;28;20047;-72
2022/05/02 14:49:55;;;;;;;3.80;2.72;;;;;;;;;;5065895;28;20389;-72
2022/05/02 14:52:23;;;;;;;3.20;2.00;;;;;;;;;;5066328;28;20032;-73
2022/05/02 14:54:51;;;;;;;3.05;1.55;;;;;;;;;;5065719;28;20045;-72
2022/05/02 14:57:21;;;;;;;2.47;1.80;;;;;;;;;;5065641;28;20341;-72
2022/05/02 14:59:51;;;;;;;8.88;1.92;;;;;;;;;;5072964;28;20043;-72
2022/05/02 15:02:19;;;;;;;3.17;1.40;;;;;;;;;;5068313;28;20052;-72
2022/05/02 15:04:46;;;;;;;2.90;1.42;;;;;;;;;;5050494;28;20032;-73
2022/05/02 15:07:16;;;;;;;2.97;1.55;;;;;;;;;;5049843;28;20036;-73
2022/05/02 15:10:14;;;;;;;1.98;1.10;;;;;;;;;;5048410;28;20497;-72
2022/05/02 15:12:50;;;;;;;3.40;1.73;;;;;;;;;;5050121;28;20500;-72
2022/05/02 15:15:16;;;;;;;2.00;1.52;;;;;;;;;;5046922;28;20044;-72
2022/05/02 15:18:03;;;;;;;2.47;1.42;;;;;;;;;;5070616;28;20062;-73
2022/05/02 15:20:31;;;;;;;4.95;1.80;;;;;;;;;;5056903;28;20075;-72
2022/05/02 15:22:58;;;;;;;2.28;1.40;;;;;;;;;;5047377;28;20051;-72